Time;durP1;ratioP1;P1;durP2;ratioP2;P2;SDS_P1;SDS_P2;PMS_P1;PMS_P2;Temp;Humidity;BMP_temperature;BMP_pressure;BME280_temperature;BME280_humidity;BME280_pressure;Samples;Min_cycle;Max_cycle;Signal;HPM_P1;HPM_P2
2023/01/06 00:00:34;;;;;;;6.68;1.95;;;9.70;91.00;;;;;;5056698;28;20046;-75
2023/01/06 00:03:00;;;;;;;3.97;2.05;;;9.60;91.00;;;;;;5035227;28;20038;-75
2023/01/06 00:05:25;;;;;;;6.72;2.60;;;9.60;91.00;;;;;;5036910;28;20123;-74
2023/01/06 00:07:51;;;;;;;10.13;2.47;;;9.60;91.00;;;;;;5067641;28;20063;-75
2023/01/06 00:10:17;;;;;;;4.72;1.80;;;9.60;91.10;;;;;;5049485;28;20164;-76
2023/01/06 00:12:48;;;;;;;4.63;2.03;;;9.60;91.00;;;;;;5049602;28;20034;-75
2023/01/06 00:15:14;;;;;;;5.03;2.20;;;9.60;91.10;;;;;;5047832;28;20040;-76
2023/01/06 00:17:40;;;;;;;8.30;3.42;;;9.60;91.10;;;;;;5050031;28;20043;-76
2023/01/06 00:20:06;;;;;;;6.53;2.50;;;9.70;91.10;;;;;;5022875;28;20534;-75
2023/01/06 00:22:32;;;;;;;4.97;2.25;;;9.60;91.20;;;;;;5041472;28;20061;-75
2023/01/06 00:24:57;;;;;;;6.20;2.35;;;9.60;91.50;;;;;;5050296;28;20036;-75
2023/01/06 00:27:23;;;;;;;2.60;1.58;;;9.70;91.60;;;;;;5066755;28;20032;-75
2023/01/06 00:29:49;;;;;;;3.47;1.90;;;9.70;91.30;;;;;;5035704;28;20046;-75
2023/01/06 00:32:15;;;;;;;4.85;1.75;;;9.70;91.30;;;;;;5068030;28;20123;-75
2023/01/06 00:34:41;;;;;;;6.07;2.92;;;9.70;91.40;;;;;;5035589;28;20040;-75
2023/01/06 00:37:06;;;;;;;4.18;1.27;;;9.70;91.40;;;;;;5035629;28;20423;-76
2023/01/06 00:39:32;;;;;;;2.88;1.10;;;9.70;91.40;;;;;;5051083;28;20043;-76
2023/01/06 00:42:04;;;;;;;3.53;1.50;;;9.70;91.40;;;;;;5049646;28;20101;-75
2023/01/06 00:44:34;;;;;;;7.55;1.63;;;9.70;91.50;;;;;;5032944;28;20032;-76
2023/01/06 00:46:59;;;;;;;5.38;2.08;;;9.80;91.50;;;;;;5053953;28;20058;-76
2023/01/06 00:49:25;;;;;;;2.85;1.75;;;9.80;91.50;;;;;;5050360;28;20059;-76
2023/01/06 00:51:50;;;;;;;5.00;2.08;;;9.80;91.50;;;;;;5051943;28;20036;-76
2023/01/06 00:54:16;;;;;;;3.60;1.75;;;9.80;91.50;;;;;;5053043;28;20065;-76
2023/01/06 00:56:43;;;;;;;4.80;1.80;;;9.80;91.60;;;;;;5052402;28;20045;-74
2023/01/06 00:59:09;;;;;;;3.47;1.70;;;9.80;91.60;;;;;;5055569;28;20059;-76
2023/01/06 01:01:35;;;;;;;4.10;1.60;;;9.80;91.60;;;;;;5039044;28;20538;-76
2023/01/06 01:04:00;;;;;;;4.05;1.40;;;9.80;91.60;;;;;;5055543;28;20040;-76
2023/01/06 01:06:26;;;;;;;3.17;1.02;;;9.80;91.60;;;;;;5056054;28;20044;-76
2023/01/06 01:08:55;;;;;;;4.78;1.60;;;9.80;91.70;;;;;;5041170;28;20123;-76
2023/01/06 01:14:05;;;;;;;1.95;1.30;;;9.90;91.70;;;;;;5057054;28;20124;-76
2023/01/06 01:16:31;;;;;;;4.25;1.40;;;9.90;91.70;;;;;;5037012;28;20032;-75
2023/01/06 01:18:57;;;;;;;4.22;1.35;;;9.90;91.70;;;;;;5051128;28;20043;-76
2023/01/06 01:21:22;;;;;;;2.40;1.50;;;9.90;91.70;;;;;;5037109;28;20402;-76
2023/01/06 01:23:48;;;;;;;1.70;1.10;;;9.90;92.10;;;;;;5024033;28;20028;-75
2023/01/06 01:26:13;;;;;;;1.23;0.98;;;9.90;91.80;;;;;;5040090;28;20128;-75
2023/01/06 01:28:39;;;;;;;2.88;1.25;;;9.90;91.80;;;;;;5052634;28;20128;-75
2023/01/06 01:31:04;;;;;;;3.75;1.88;;;9.90;91.80;;;;;;5039782;28;20043;-76
2023/01/06 01:33:30;;;;;;;3.65;1.33;;;9.90;91.70;;;;;;5051453;28;20031;-74
2023/01/06 01:35:56;;;;;;;2.75;1.60;;;9.90;91.70;;;;;;5052792;28;20106;-76
2023/01/06 01:38:21;;;;;;;4.40;1.80;;;9.90;91.70;;;;;;5034427;28;20486;-76
2023/01/06 01:40:48;;;;;;;1.80;1.30;;;9.90;91.70;;;;;;5054303;28;20635;-76
2023/01/06 01:43:13;;;;;;;3.15;1.40;;;9.90;91.70;;;;;;5051077;28;20116;-76
2023/01/06 01:45:40;;;;;;;3.20;1.52;;;9.80;91.70;;;;;;5052453;28;20028;-75
2023/01/06 01:48:10;;;;;;;4.15;1.65;;;9.90;91.70;;;;;;5039670;28;20139;-76
2023/01/06 01:50:48;;;;;;;3.97;1.60;;;9.80;91.70;;;;;;5052768;28;20033;-74
2023/01/06 01:53:26;;;;;;;3.15;1.45;;;9.80;91.70;;;;;;5020368;28;20059;-76
2023/01/06 01:55:53;;;;;;;1.98;1.25;;;9.90;91.80;;;;;;5041508;28;20125;-77
2023/01/06 01:58:20;;;;;;;2.70;1.30;;;9.90;91.80;;;;;;5051522;28;20059;-75
2023/01/06 02:00:46;;;;;;;1.83;1.02;;;9.80;91.70;;;;;;5039830;28;20090;-76
2023/01/06 02:03:12;;;;;;;3.65;1.17;;;9.80;91.70;;;;;;5051041;28;20044;-76
2023/01/06 02:05:40;;;;;;;1.40;1.23;;;9.80;91.70;;;;;;5051026;28;20036;-76
2023/01/06 02:08:10;;;;;;;2.58;1.48;;;9.80;91.70;;;;;;5055834;28;20036;-76
2023/01/06 02:10:36;;;;;;;1.33;1.00;;;9.80;91.70;;;;;;5037582;28;20056;-74
2023/01/06 02:13:01;;;;;;;2.10;1.45;;;9.80;91.70;;;;;;5036221;28;20123;-76
2023/01/06 02:15:29;;;;;;;2.15;1.38;;;9.80;91.70;;;;;;5046864;28;20032;-76
2023/01/06 02:18:32;;;;;;;2.85;1.40;;;9.80;91.70;;;;;;5051197;28;20579;-75
2023/01/06 02:21:06;;;;;;;3.53;1.27;;;9.80;91.80;;;;;;5050651;28;20047;-75
2023/01/06 02:24:03;;;;;;;3.50;2.00;;;9.90;91.80;;;;;;5053393;28;20090;-76
2023/01/06 02:27:01;;;;;;;4.38;1.92;;;9.90;91.90;;;;;;5056055;28;20036;-76
2023/01/06 02:29:53;;;;;;;3.13;1.95;;;9.90;91.90;;;;;;5055200;28;20101;-76
2023/01/06 02:32:43;;;;;;;5.50;2.17;;;9.90;91.90;;;;;;5037714;28;20036;-76
2023/01/06 02:35:12;;;;;;;3.05;1.83;;;9.90;91.90;;;;;;5068265;28;20534;-76
2023/01/06 02:37:51;;;;;;;3.13;2.03;;;9.90;91.90;;;;;;5052821;28;20036;-75
2023/01/06 02:40:22;;;;;;;2.42;2.22;;;10.00;92.00;;;;;;5048809;28;20032;-76
2023/01/06 02:43:15;;;;;;;4.13;2.35;;;10.00;92.00;;;;;;5051290;28;20042;-75
2023/01/06 02:45:45;;;;;;;4.45;2.22;;;10.00;92.10;;;;;;5071407;28;20071;-76
2023/01/06 02:48:11;;;;;;;3.80;2.20;;;10.10;92.10;;;;;;5052880;28;20067;-74
2023/01/06 02:50:40;;;;;;;2.83;2.25;;;10.00;92.10;;;;;;5051490;28;20054;-76
2023/01/06 02:53:27;;;;;;;6.88;2.58;;;10.10;92.10;;;;;;5053817;28;20505;-76
2023/01/06 02:55:53;;;;;;;3.45;2.35;;;10.10;92.20;;;;;;5067928;28;20086;-76
2023/01/06 02:58:55;;;;;;;5.20;2.55;;;10.10;92.20;;;;;;5038761;28;20048;-76
2023/01/06 03:01:32;;;;;;;4.28;2.10;;;10.10;92.30;;;;;;5032515;28;20043;-75
2023/01/06 03:03:59;;;;;;;3.85;2.67;;;10.10;92.20;;;;;;5050824;28;20036;-76
2023/01/06 03:06:26;;;;;;;3.30;2.42;;;10.10;92.20;;;;;;5054123;28;20031;-76
2023/01/06 03:08:52;;;;;;;4.10;2.80;;;10.10;92.20;;;;;;5067355;28;20886;-74
2023/01/06 03:11:18;;;;;;;4.78;3.50;;;10.10;92.20;;;;;;5034497;28;20028;-76
2023/01/06 03:13:55;;;;;;;6.07;3.15;;;10.10;92.20;;;;;;5063261;28;20108;-76
2023/01/06 03:16:20;;;;;;;4.15;3.05;;;10.20;92.30;;;;;;5035673;28;20036;-76
2023/01/06 03:18:47;;;;;;;4.03;3.20;;;10.20;92.30;;;;;;5038157;28;20097;-76
2023/01/06 03:21:17;;;;;;;4.22;2.90;;;10.20;92.30;;;;;;5039595;28;20040;-77
2023/01/06 03:23:42;;;;;;;3.15;2.83;;;10.20;92.30;;;;;;5050370;28;20118;-76
2023/01/06 03:26:08;;;;;;;3.00;2.55;;;10.20;92.30;;;;;;5053568;28;20054;-76
2023/01/06 03:28:34;;;;;;;3.53;2.80;;;10.20;92.30;;;;;;5051318;28;20659;-76
2023/01/06 03:31:18;;;;;;;3.90;2.58;;;10.20;92.30;;;;;;5053511;28;20059;-76
2023/01/06 03:33:47;;;;;;;3.22;2.72;;;10.20;92.30;;;;;;5066456;28;20047;-76
2023/01/06 03:36:22;;;;;;;4.90;2.88;;;10.20;92.30;;;;;;5067992;28;20173;-76
2023/01/06 03:39:12;;;;;;;4.10;3.28;;;10.20;92.30;;;;;;5067013;28;20032;-77
2023/01/06 03:44:44;;;;;;;2.85;2.30;;;10.20;92.40;;;;;;5051076;28;20047;-75
2023/01/06 03:47:25;;;;;;;3.58;3.25;;;10.20;92.30;;;;;;5053074;28;20113;-76
2023/01/06 03:50:03;;;;;;;3.60;3.08;;;10.20;92.40;;;;;;5038421;28;20043;-76
2023/01/06 03:52:30;;;;;;;5.53;2.72;;;10.30;92.40;;;;;;5033460;28;20040;-76
2023/01/06 03:55:03;;;;;;;4.07;2.78;;;10.20;92.30;;;;;;5049967;28;20065;-76
2023/01/06 03:57:32;;;;;;;3.90;2.97;;;10.20;92.40;;;;;;5023104;28;20040;-76
2023/01/06 04:00:03;;;;;;;6.45;3.42;;;10.30;92.40;;;;;;5031849;28;20036;-77
2023/01/06 04:02:29;;;;;;;4.80;3.00;;;10.30;92.40;;;;;;5035697;28;20119;-76
2023/01/06 04:05:07;;;;;;;3.47;2.65;;;10.30;92.40;;;;;;5051594;28;20039;-76
2023/01/06 04:07:32;;;;;;;4.03;3.05;;;10.30;92.50;;;;;;5047239;28;20056;-76
2023/01/06 04:09:58;;;;;;;4.38;2.65;;;10.30;92.40;;;;;;5048444;28;20136;-77
2023/01/06 04:12:39;;;;;;;3.65;2.63;;;10.30;92.50;;;;;;5046271;28;20114;-76
2023/01/06 04:15:14;;;;;;;2.90;2.50;;;10.30;92.50;;;;;;5035329;28;20036;-74
2023/01/06 04:17:40;;;;;;;3.13;2.72;;;10.30;92.50;;;;;;5067271;28;20119;-74
2023/01/06 04:20:07;;;;;;;3.75;2.72;;;10.30;92.50;;;;;;5049772;28;20055;-76
2023/01/06 04:22:32;;;;;;;3.55;2.40;;;10.30;92.50;;;;;;5035705;28;20040;-76
2023/01/06 04:24:58;;;;;;;2.25;2.05;;;10.30;92.50;;;;;;5046803;28;20469;-76
2023/01/06 04:27:23;;;;;;;1.90;1.80;;;10.30;92.50;;;;;;5055115;28;20517;-75
2023/01/06 04:29:49;;;;;;;2.00;1.80;;;10.30;92.50;;;;;;5038846;28;20573;-74
2023/01/06 04:32:14;;;;;;;1.63;1.52;;;10.30;92.50;;;;;;5052111;28;20135;-75
2023/01/06 04:34:40;;;;;;;1.85;1.60;;;10.30;92.50;;;;;;5071752;28;20117;-76
2023/01/06 04:37:05;;;;;;;1.60;1.50;;;10.30;92.60;;;;;;5041192;28;20758;-76
2023/01/06 04:39:31;;;;;;;2.22;1.85;;;10.30;92.60;;;;;;5038029;28;20067;-76
2023/01/06 04:41:56;;;;;;;2.35;2.15;;;10.40;92.60;;;;;;5032115;28;20038;-75
2023/01/06 04:44:22;;;;;;;3.17;2.20;;;10.40;92.60;;;;;;5070625;28;20040;-76
2023/01/06 04:46:47;;;;;;;2.15;1.95;;;10.40;92.60;;;;;;5055903;28;20040;-76
2023/01/06 04:49:13;;;;;;;3.50;2.00;;;10.40;92.70;;;;;;5058433;28;20031;-76
2023/01/06 04:51:38;;;;;;;2.13;1.75;;;10.40;92.70;;;;;;5050514;28;20040;-76
2023/01/06 04:54:04;;;;;;;5.20;1.88;;;10.40;92.70;;;;;;5039045;28;20090;-76
2023/01/06 04:56:29;;;;;;;2.55;1.83;;;10.40;92.70;;;;;;5039657;28;20040;-76
2023/01/06 04:58:55;;;;;;;3.58;1.98;;;10.40;92.70;;;;;;5034011;28;21975;-76
2023/01/06 05:01:21;;;;;;;2.85;1.98;;;10.40;92.70;;;;;;5053131;28;20037;-76
2023/01/06 05:03:47;;;;;;;2.33;1.70;;;10.40;92.70;;;;;;5034792;28;20131;-76
2023/01/06 05:06:13;;;;;;;2.13;1.92;;;10.40;92.70;;;;;;5055890;28;20726;-76
2023/01/06 05:08:40;;;;;;;2.00;1.70;;;10.40;92.70;;;;;;5052174;28;20659;-76
2023/01/06 05:11:07;;;;;;;2.15;1.95;;;10.40;92.70;;;;;;5038535;28;20123;-77
2023/01/06 05:13:33;;;;;;;1.75;1.63;;;10.50;92.70;;;;;;5031302;28;20045;-77
2023/01/06 05:15:58;;;;;;;2.20;1.70;;;10.50;92.70;;;;;;5056266;28;20085;-76
2023/01/06 05:18:24;;;;;;;2.53;2.00;;;10.50;92.70;;;;;;5037113;28;20032;-76
2023/01/06 05:20:53;;;;;;;1.90;1.80;;;10.50;92.80;;;;;;5053560;28;20029;-75
2023/01/06 05:23:18;;;;;;;1.88;1.73;;;10.50;92.70;;;;;;5055353;28;20048;-77
2023/01/06 05:25:44;;;;;;;3.38;1.88;;;10.50;92.70;;;;;;5037202;28;20579;-75
2023/01/06 05:28:09;;;;;;;2.22;1.98;;;10.50;93.00;;;;;;5035867;28;20041;-75
2023/01/06 05:30:35;;;;;;;2.17;1.50;;;10.50;92.70;;;;;;5024950;28;20409;-76
2023/01/06 05:33:01;;;;;;;7.50;3.78;;;10.50;92.70;;;;;;5050354;28;20503;-76
2023/01/06 05:35:26;;;;;;;8.10;3.72;;;10.50;92.70;;;;;;5041456;28;20048;-76
2023/01/06 05:37:55;;;;;;;4.93;3.30;;;10.50;92.70;;;;;;5036153;28;20067;-75
2023/01/06 05:40:20;;;;;;;2.28;2.00;;;10.50;92.70;;;;;;5049659;28;20055;-75
2023/01/06 05:42:46;;;;;;;3.05;1.90;;;10.50;92.70;;;;;;5051237;28;20052;-76
2023/01/06 05:45:11;;;;;;;2.90;2.10;;;10.50;92.70;;;;;;5050614;28;20496;-75
2023/01/06 05:47:37;;;;;;;2.10;1.88;;;10.50;92.70;;;;;;5038461;28;20495;-75
2023/01/06 05:50:03;;;;;;;5.57;2.40;;;10.50;92.70;;;;;;5036742;28;20040;-77
2023/01/06 05:52:28;;;;;;;2.08;1.88;;;10.50;92.70;;;;;;5038464;28;20037;-76
2023/01/06 05:54:54;;;;;;;4.55;2.55;;;10.50;92.70;;;;;;5037929;28;20040;-76
2023/01/06 05:57:19;;;;;;;2.45;1.83;;;10.50;92.70;;;;;;5053953;28;20047;-76
2023/01/06 05:59:45;;;;;;;3.72;2.08;;;10.50;92.70;;;;;;5054529;28;20032;-76
2023/01/06 06:02:10;;;;;;;2.38;2.08;;;10.50;92.80;;;;;;5052692;28;20032;-75
2023/01/06 06:04:36;;;;;;;3.63;2.15;;;10.50;92.70;;;;;;5068897;28;20041;-74
2023/01/06 06:07:01;;;;;;;2.15;1.92;;;10.40;92.70;;;;;;5054094;28;20028;-76
2023/01/06 06:09:27;;;;;;;4.00;2.75;;;10.40;92.70;;;;;;5050023;28;20075;-76
2023/01/06 06:11:53;;;;;;;2.08;1.67;;;10.40;92.70;;;;;;5034427;28;20139;-75
2023/01/06 06:14:19;;;;;;;2.13;1.80;;;10.40;92.70;;;;;;5052006;28;20762;-76
2023/01/06 06:16:44;;;;;;;3.00;2.15;;;10.40;92.70;;;;;;5052547;28;20036;-76
2023/01/06 06:19:11;;;;;;;1.90;1.70;;;10.40;92.70;;;;;;5037290;28;20040;-74
2023/01/06 06:21:36;;;;;;;2.38;2.10;;;10.40;92.70;;;;;;5020775;28;20123;-76
2023/01/06 06:24:02;;;;;;;2.50;2.13;;;10.40;92.70;;;;;;5022916;28;20573;-76
2023/01/06 06:26:27;;;;;;;3.97;1.88;;;10.40;92.70;;;;;;5048027;28;20035;-76
2023/01/06 06:28:53;;;;;;;2.55;1.60;;;10.40;92.70;;;;;;5069806;28;20392;-75
2023/01/06 06:31:26;;;;;;;3.25;2.67;;;10.40;92.70;;;;;;5048673;28;20522;-75
2023/01/06 06:33:53;;;;;;;2.03;1.40;;;10.40;92.70;;;;;;5047980;28;20044;-75
2023/01/06 06:36:19;;;;;;;2.88;0.90;;;10.40;92.60;;;;;;5030670;28;20040;-76
2023/01/06 06:38:46;;;;;;;0.50;0.50;;;10.40;92.60;;;;;;5034153;28;20085;-76
2023/01/06 06:41:11;;;;;;;0.50;0.50;;;10.40;92.60;;;;;;5030538;28;20730;-76
2023/01/06 06:43:37;;;;;;;3.13;2.92;;;10.30;92.60;;;;;;5034740;28;20046;-75
2023/01/06 06:46:03;;;;;;;1.17;0.80;;;10.30;92.60;;;;;;5065505;28;20043;-76
2023/01/06 06:48:28;;;;;;;0.90;0.68;;;10.30;92.60;;;;;;5048823;28;22799;-75
2023/01/06 06:51:05;;;;;;;0.70;0.65;;;10.30;92.60;;;;;;5035832;28;20126;-76
2023/01/06 06:53:31;;;;;;;0.93;0.50;;;10.30;92.60;;;;;;5051473;28;20418;-76
2023/01/06 06:55:57;;;;;;;0.80;0.60;;;10.30;92.60;;;;;;5049633;28;20036;-76
2023/01/06 06:58:23;;;;;;;1.50;0.70;;;10.30;92.60;;;;;;5068850;28;20040;-77
2023/01/06 07:00:48;;;;;;;0.68;0.68;;;10.30;92.60;;;;;;5045500;28;20534;-76
2023/01/06 07:03:14;;;;;;;0.98;0.70;;;10.30;92.60;;;;;;5049833;28;20109;-76
2023/01/06 07:05:42;;;;;;;1.75;0.52;;;10.30;92.60;;;;;;5033988;28;20028;-76
2023/01/06 07:08:07;;;;;;;1.70;0.88;;;10.30;92.60;;;;;;5033558;28;20062;-77
2023/01/06 07:10:33;;;;;;;0.82;0.57;;;10.30;92.60;;;;;;5044647;28;20487;-76
2023/01/06 07:12:58;;;;;;;1.80;0.65;;;10.20;92.60;;;;;;5046338;28;20548;-77
2023/01/06 07:15:24;;;;;;;1.25;0.40;;;10.30;92.60;;;;;;5033499;28;20028;-76
2023/01/06 07:17:49;;;;;;;1.23;0.70;;;10.30;92.60;;;;;;5053832;28;20060;-78
2023/01/06 07:20:15;;;;;;;1.70;0.47;;;10.30;92.60;;;;;;5030695;28;20162;-76
2023/01/06 07:22:40;;;;;;;2.25;0.63;;;10.30;92.70;;;;;;5044619;28;20402;-76
2023/01/06 07:25:07;;;;;;;0.40;0.40;;;10.20;92.60;;;;;;5045285;28;20175;-76
2023/01/06 07:27:32;;;;;;;0.57;0.50;;;10.30;92.60;;;;;;5047198;28;20036;-75
2023/01/06 07:29:58;;;;;;;2.15;0.40;;;10.20;92.60;;;;;;5049521;28;20546;-76
2023/01/06 07:32:23;;;;;;;0.57;0.57;;;10.20;92.60;;;;;;5027167;28;20471;-76
2023/01/06 07:34:49;;;;;;;1.98;0.63;;;10.20;92.60;;;;;;5049790;28;20132;-76
2023/01/06 07:37:14;;;;;;;2.75;0.40;;;10.30;92.70;;;;;;5030862;28;20115;-77
2023/01/06 07:39:40;;;;;;;0.70;0.70;;;10.30;92.60;;;;;;5047352;28;20063;-76
2023/01/06 07:42:08;;;;;;;0.60;0.60;;;10.30;92.60;;;;;;5029011;28;20738;-76
2023/01/06 07:44:34;;;;;;;1.25;0.40;;;10.30;92.60;;;;;;5049661;28;20032;-77
2023/01/06 07:47:00;;;;;;;0.50;0.50;;;10.30;92.60;;;;;;5047725;28;20108;-77
2023/01/06 07:49:26;;;;;;;1.25;0.70;;;10.30;92.60;;;;;;5069227;28;20044;-77
2023/01/06 07:51:52;;;;;;;1.13;0.60;;;10.30;92.60;;;;;;5046125;28;20060;-75
2023/01/06 07:54:17;;;;;;;1.85;0.60;;;10.30;92.60;;;;;;5035375;28;20071;-76
2023/01/06 07:56:43;;;;;;;0.95;0.60;;;10.30;93.00;;;;;;5022337;28;20933;-75
2023/01/06 07:59:09;;;;;;;0.80;0.65;;;10.30;92.60;;;;;;5047143;28;20380;-76
2023/01/06 08:01:34;;;;;;;0.50;0.35;;;10.30;92.60;;;;;;5034907;28;20466;-76
2023/01/06 08:04:00;;;;;;;0.90;0.90;;;10.30;92.60;;;;;;5037390;28;20518;-76
2023/01/06 08:06:26;;;;;;;1.98;0.60;;;10.30;92.60;;;;;;5038862;28;20748;-76
2023/01/06 08:08:51;;;;;;;0.40;0.40;;;10.30;92.60;;;;;;5054101;28;20762;-77
2023/01/06 08:11:17;;;;;;;0.95;0.85;;;10.30;92.60;;;;;;5040581;28;20036;-76
2023/01/06 08:13:42;;;;;;;0.65;0.50;;;10.30;92.60;;;;;;5054798;28;20051;-76
2023/01/06 08:16:08;;;;;;;3.88;1.50;;;10.30;92.50;;;;;;5055879;28;20041;-76
2023/01/06 08:18:34;;;;;;;1.00;0.70;;;10.30;92.50;;;;;;5051202;28;20036;-76
2023/01/06 08:21:03;;;;;;;2.33;1.75;;;10.30;92.50;;;;;;5055429;28;20032;-76
2023/01/06 08:23:29;;;;;;;1.02;0.70;;;10.30;92.50;;;;;;5040911;28;20033;-76
2023/01/06 08:26:12;;;;;;;1.15;1.00;;;10.30;92.50;;;;;;5034701;28;20549;-75
2023/01/06 08:28:38;;;;;;;0.68;0.68;;;10.30;92.80;;;;;;5084560;27;20187;-77
2023/01/06 08:31:06;;;;;;;0.60;0.60;;;10.30;92.40;;;;;;5054995;28;20036;-76
2023/01/06 08:33:32;;;;;;;4.13;2.97;;;10.30;92.40;;;;;;5053380;28;20044;-77
2023/01/06 08:35:58;;;;;;;3.30;1.77;;;10.30;92.40;;;;;;5058200;28;20082;-75
2023/01/06 08:38:24;;;;;;;2.33;2.10;;;10.30;92.40;;;;;;5056219;28;20060;-76
2023/01/06 08:40:53;;;;;;;1.90;1.52;;;10.30;92.40;;;;;;5055339;28;20059;-76
2023/01/06 08:43:19;;;;;;;1.27;0.52;;;10.30;92.40;;;;;;5066903;28;20040;-75
2023/01/06 08:45:44;;;;;;;1.38;0.80;;;10.30;92.30;;;;;;5054296;28;20028;-76
2023/01/06 08:48:10;;;;;;;4.78;2.67;;;10.30;92.30;;;;;;5052347;28;20396;-75
2023/01/06 08:50:38;;;;;;;1.67;0.73;;;10.30;92.30;;;;;;5037233;28;20024;-76
2023/01/06 08:53:03;;;;;;;1.50;0.40;;;10.30;92.20;;;;;;5043908;28;20034;-76
2023/01/06 08:55:29;;;;;;;0.98;0.68;;;10.30;92.20;;;;;;5040696;28;20035;-77
2023/01/06 08:57:54;;;;;;;0.35;0.35;;;10.30;92.20;;;;;;5039449;28;20036;-76
2023/01/06 09:00:20;;;;;;;0.52;0.30;;;10.30;92.10;;;;;;5069600;28;20051;-75
2023/01/06 09:02:45;;;;;;;0.30;0.30;;;10.30;92.10;;;;;;5041431;28;20115;-76
2023/01/06 09:05:11;;;;;;;0.77;0.40;;;10.30;92.00;;;;;;5072379;28;20059;-75
2023/01/06 09:07:36;;;;;;;0.45;0.45;;;10.30;92.00;;;;;;5052725;28;20115;-74
2023/01/06 09:10:02;;;;;;;0.30;0.30;;;10.30;92.00;;;;;;5049576;28;20043;-76
2023/01/06 09:12:27;;;;;;;0.50;0.30;;;10.30;92.00;;;;;;5040017;28;20747;-76
2023/01/06 09:14:53;;;;;;;0.40;0.30;;;10.30;91.90;;;;;;5049658;28;20106;-75
2023/01/06 09:17:18;;;;;;;1.15;0.32;;;10.30;91.90;;;;;;5050423;28;20131;-75
2023/01/06 09:19:44;;;;;;;4.05;0.70;;;10.40;91.90;;;;;;5034734;28;20069;-76
2023/01/06 09:22:09;;;;;;;5.32;2.40;;;10.30;91.90;;;;;;5053320;28;20119;-75
2023/01/06 09:24:35;;;;;;;2.50;1.00;;;10.40;91.80;;;;;;5055495;28;20057;-76
2023/01/06 09:27:00;;;;;;;2.63;0.60;;;10.40;91.80;;;;;;5037761;28;20068;-76
2023/01/06 09:29:26;;;;;;;2.47;0.28;;;10.40;91.80;;;;;;5051394;28;20040;-76
2023/01/06 09:31:51;;;;;;;1.75;0.35;;;10.40;91.70;;;;;;5054163;28;20046;-76
2023/01/06 09:34:17;;;;;;;2.88;0.40;;;10.40;91.70;;;;;;5054256;28;20040;-76
2023/01/06 09:36:42;;;;;;;1.17;0.68;;;10.40;91.60;;;;;;5069898;28;20036;-75
2023/01/06 09:39:08;;;;;;;1.20;0.60;;;10.40;91.60;;;;;;5056812;28;20086;-77
2023/01/06 09:41:45;;;;;;;5.32;2.40;;;10.40;91.60;;;;;;5034437;28;20032;-77
2023/01/06 09:44:28;;;;;;;4.18;1.70;;;10.40;91.50;;;;;;5065089;28;20104;-76
2023/01/06 09:46:54;;;;;;;49.60;14.98;;;10.40;91.50;;;;;;5039814;28;20042;-76
2023/01/06 09:49:42;;;;;;;13.10;4.03;;;10.50;91.50;;;;;;5055312;28;20422;-76
2023/01/06 09:52:17;;;;;;;2.15;0.90;;;10.50;91.40;;;;;;5071587;28;20043;-76
2023/01/06 09:55:03;;;;;;;69.00;20.83;;;10.50;91.40;;;;;;5050077;28;20502;-76
2023/01/06 09:57:45;;;;;;;40.58;13.88;;;10.50;91.30;;;;;;5070383;28;20036;-76
2023/01/06 10:00:18;;;;;;;10.77;3.78;;;10.50;91.40;;;;;;5054428;28;20037;-75
2023/01/06 10:02:43;;;;;;;4.45;1.30;;;10.50;91.30;;;;;;5052642;28;20090;-76
2023/01/06 10:05:45;;;;;;;8.63;2.90;;;10.50;91.30;;;;;;5052173;28;20605;-75
2023/01/06 10:08:17;;;;;;;24.30;9.80;;;10.50;91.20;;;;;;5023174;28;20040;-75
2023/01/06 10:11:22;;;;;;;13.95;6.07;;;10.50;91.20;;;;;;5067766;28;20047;-76
2023/01/06 10:14:12;;;;;;;5.65;2.40;;;10.50;91.20;;;;;;5002559;28;20073;-71
2023/01/06 10:17:15;;;;;;;7.50;4.10;;;10.60;91.20;;;;;;5071115;28;20107;-76
2023/01/06 10:20:29;;;;;;;3.38;1.83;;;10.60;91.10;;;;;;5084521;27;20052;-76
2023/01/06 10:23:16;;;;;;;13.15;6.00;;;10.60;91.10;;;;;;5047339;28;20068;-76
2023/01/06 10:25:49;;;;;;;1.50;1.10;;;10.60;91.10;;;;;;5067478;28;20024;-76
2023/01/06 10:28:29;;;;;;;3.58;2.53;;;10.60;91.10;;;;;;5037077;28;20116;-77
2023/01/06 10:30:57;;;;;;;3.88;1.30;;;10.60;91.00;;;;;;5049098;28;20638;-76
2023/01/06 10:33:27;;;;;;;1.67;1.35;;;10.60;91.10;;;;;;5052078;28;20039;-75
2023/01/06 10:35:53;;;;;;;2.70;1.58;;;10.60;91.10;;;;;;5065856;28;20040;-77
2023/01/06 10:38:21;;;;;;;2.92;1.77;;;10.60;91.00;;;;;;5034786;28;20051;-76
2023/01/06 10:40:47;;;;;;;1.73;1.10;;;10.60;91.00;;;;;;5049851;28;20146;-75
2023/01/06 10:43:12;;;;;;;1.40;0.98;;;10.60;91.00;;;;;;5051713;28;20490;-75
2023/01/06 10:45:42;;;;;;;2.88;1.40;;;10.60;91.00;;;;;;5036339;28;20092;-76
2023/01/06 10:48:13;;;;;;;1.10;1.00;;;10.60;90.90;;;;;;5050386;28;20780;-76
2023/01/06 10:50:38;;;;;;;1.02;0.80;;;10.60;90.90;;;;;;5050711;28;20602;-76
2023/01/06 10:53:04;;;;;;;2.92;0.85;;;10.60;90.90;;;;;;5029601;28;20032;-75
2023/01/06 10:55:35;;;;;;;1.58;1.00;;;10.60;90.90;;;;;;5051480;28;20530;-76
2023/01/06 10:58:04;;;;;;;;;;;10.60;90.80;;;;;;5071503;28;20744;-75
2023/01/06 11:00:31;;;;;;;1.42;1.00;;;10.60;90.80;;;;;;5051587;28;19920;-77
2023/01/06 11:03:02;;;;;;;1.15;1.05;;;10.60;90.80;;;;;;5052758;28;20038;-76
2023/01/06 11:05:29;;;;;;;1.33;0.82;;;10.60;90.70;;;;;;5069098;28;20744;-76
2023/01/06 11:07:57;;;;;;;0.95;0.88;;;10.60;90.70;;;;;;5039070;28;20067;-76
2023/01/06 11:10:26;;;;;;;1.25;0.90;;;10.60;90.70;;;;;;5035173;28;20543;-76
2023/01/06 11:12:52;;;;;;;1.02;0.80;;;10.60;90.60;;;;;;5051276;28;20040;-76
2023/01/06 11:15:30;;;;;;;1.85;0.60;;;10.60;90.60;;;;;;5033517;28;20039;-74
2023/01/06 11:17:55;;;;;;;1.20;0.80;;;10.60;90.60;;;;;;5050215;28;20032;-77
2023/01/06 11:20:21;;;;;;;2.60;0.88;;;10.60;90.60;;;;;;5051477;28;20275;-76
2023/01/06 11:22:47;;;;;;;0.30;0.30;;;10.70;90.60;;;;;;5066340;28;20071;-76
2023/01/06 11:25:21;;;;;;;0.90;0.40;;;10.60;90.60;;;;;;5034711;28;20119;-74
2023/01/06 11:28:17;;;;;;;1.90;1.10;;;10.60;90.50;;;;;;5053591;28;20083;-75
2023/01/06 11:31:01;;;;;;;1.83;1.08;;;10.60;90.40;;;;;;5050929;28;20055;-75
2023/01/06 11:33:27;;;;;;;0.73;0.32;;;10.60;90.40;;;;;;5051237;28;20089;-76
2023/01/06 11:35:53;;;;;;;2.35;0.50;;;10.60;90.40;;;;;;5051541;28;20114;-76
2023/01/06 11:38:19;;;;;;;5.05;3.55;;;10.60;90.40;;;;;;5037422;28;20040;-75
2023/01/06 11:40:49;;;;;;;0.40;0.40;;;10.60;90.40;;;;;;5050465;28;20044;-76
2023/01/06 11:43:21;;;;;;;1.55;0.95;;;10.60;90.30;;;;;;5050060;28;20044;-77
2023/01/06 11:45:47;;;;;;;3.33;2.58;;;10.60;90.30;;;;;;5036216;28;20111;-76
2023/01/06 11:48:16;;;;;;;2.58;1.80;;;10.60;90.30;;;;;;5038755;28;20864;-76
2023/01/06 11:50:52;;;;;;;4.10;2.58;;;10.60;90.30;;;;;;5035382;28;20032;-76
2023/01/06 11:53:18;;;;;;;1.35;1.10;;;10.60;90.30;;;;;;5038030;28;20056;-76
2023/01/06 11:56:03;;;;;;;3.42;1.20;;;10.60;90.30;;;;;;5069622;28;21231;-74
2023/01/06 11:58:53;;;;;;;1.75;1.10;;;10.60;90.20;;;;;;5039015;28;20047;-76
2023/01/06 12:01:24;;;;;;;1.75;0.70;;;10.60;90.20;;;;;;5050327;28;20585;-76
2023/01/06 12:03:50;;;;;;;0.90;0.57;;;10.60;90.20;;;;;;5067439;28;20044;-77
2023/01/06 12:06:29;;;;;;;2.08;1.70;;;10.70;90.20;;;;;;5034796;28;20044;-76
2023/01/06 12:09:02;;;;;;;1.23;1.08;;;10.60;90.10;;;;;;5052981;28;20502;-76
2023/01/06 12:11:38;;;;;;;3.50;2.00;;;10.60;90.00;;;;;;5034265;28;20036;-75
2023/01/06 12:14:04;;;;;;;3.20;1.60;;;10.60;90.10;;;;;;5044893;28;20033;-76
2023/01/06 12:16:37;;;;;;;1.50;1.40;;;10.70;90.10;;;;;;5046408;28;20044;-76
2023/01/06 12:19:06;;;;;;;0.68;0.68;;;10.70;90.20;;;;;;5050029;28;20043;-75
2023/01/06 12:21:33;;;;;;;1.63;1.52;;;10.70;90.00;;;;;;5046220;28;20032;-75
2023/01/06 12:34:47;;;;;;;0.68;0.68;;;10.70;90.00;;;;;;5066587;28;20193;-76
2023/01/06 12:37:43;;;;;;;0.73;0.73;;;10.60;90.10;;;;;;5046206;28;20079;-75
2023/01/06 12:40:11;;;;;;;1.50;0.50;;;10.70;90.10;;;;;;5034233;28;20498;-73
2023/01/06 12:42:45;;;;;;;2.05;0.80;;;10.60;90.10;;;;;;5061742;28;20540;-75
2023/01/06 12:45:24;;;;;;;0.55;0.52;;;10.60;90.10;;;;;;5049741;28;20032;-75
2023/01/06 12:47:54;;;;;;;2.17;0.95;;;10.60;90.00;;;;;;5064626;28;20043;-75
2023/01/06 12:50:39;;;;;;;3.47;1.95;;;10.60;90.10;;;;;;5036676;28;20041;-76
2023/01/06 12:53:27;;;;;;;0.80;0.65;;;10.60;90.10;;;;;;5038962;28;20857;-76
2023/01/06 12:56:02;;;;;;;0.80;0.80;;;10.60;90.10;;;;;;5044422;28;20033;-75
2023/01/06 12:58:52;;;;;;;4.38;1.90;;;10.60;90.10;;;;;;5067561;28;20032;-76
2023/01/06 13:01:37;;;;;;;11.50;5.85;;;10.60;90.00;;;;;;5049402;28;20078;-76
2023/01/06 13:04:08;;;;;;;2.40;1.33;;;10.60;90.00;;;;;;5042173;28;20048;-76
2023/01/06 13:06:51;;;;;;;2.65;1.30;;;10.60;90.10;;;;;;5053446;28;20028;-76
2023/01/06 13:09:21;;;;;;;7.55;4.63;;;10.60;90.00;;;;;;5064750;28;20043;-77
2023/01/06 13:11:49;;;;;;;2.55;1.20;;;10.60;90.10;;;;;;5052490;28;20063;-76
2023/01/06 13:14:15;;;;;;;4.43;2.70;;;10.60;90.10;;;;;;5068259;28;20097;-76
2023/01/06 13:16:48;;;;;;;7.22;4.25;;;10.60;90.10;;;;;;5064441;28;20460;-75